Time;durP1;ratioP1;P1;durP2;ratioP2;P2;SDS_P1;SDS_P2;PMS_P1;PMS_P2;Temp;Humidity;BMP_temperature;BMP_pressure;BME280_temperature;BME280_humidity;BME280_pressure;Samples;Min_cycle;Max_cycle;Signal;HPM_P1;HPM_P2
2022/10/29 00:02:18;;;;;;;4.70;2.72;;;;;;;19.95;61.55;101655.56;5039863;28;20033;-37
2022/10/29 00:04:43;;;;;;;5.03;2.67;;;;;;;19.98;61.43;101662.50;5050307;28;20044;-38
2022/10/29 00:07:09;;;;;;;7.28;2.38;;;;;;;19.95;61.55;101660.00;5047204;28;20052;-38
2022/10/29 00:09:34;;;;;;;5.18;3.10;;;;;;;19.95;61.40;101660.00;5044849;28;20033;-38
2022/10/29 00:11:59;;;;;;;4.43;2.53;;;;;;;19.97;61.31;101652.84;5042431;28;20068;-38
2022/10/29 00:14:25;;;;;;;4.47;2.40;;;;;;;19.96;61.40;101654.66;5046025;28;20037;-38
2022/10/29 00:16:50;;;;;;;4.07;2.40;;;;;;;19.96;61.38;101644.13;5046705;28;20083;-38
2022/10/29 00:19:16;;;;;;;4.82;2.38;;;;;;;19.95;61.47;101650.31;5040869;28;20052;-38
2022/10/29 00:21:41;;;;;;;4.13;2.30;;;;;;;19.96;61.48;101646.75;5051261;28;20041;-38
2022/10/29 00:24:10;;;;;;;4.82;2.80;;;;;;;19.96;61.48;101653.81;5045839;28;20044;-38
2022/10/29 00:26:35;;;;;;;4.75;2.45;;;;;;;19.96;61.45;101648.53;5049870;28;20028;-38
2022/10/29 00:29:01;;;;;;;4.22;2.55;;;;;;;19.94;61.41;101643.31;5067900;28;20579;-38
2022/10/29 00:31:26;;;;;;;4.50;2.70;;;;;;;19.94;61.45;101640.66;5044152;28;20033;-38
2022/10/29 00:33:55;;;;;;;3.25;2.45;;;;;;;19.96;61.31;101643.25;5046741;28;20048;-37
2022/10/29 00:36:26;;;;;;;3.90;2.47;;;;;;;19.94;61.40;101645.09;5043159;28;20043;-38
2022/10/29 00:38:52;;;;;;;5.60;2.88;;;;;;;19.94;61.35;101648.56;5048080;28;20494;-38
2022/10/29 00:41:20;;;;;;;4.22;2.60;;;;;;;19.95;61.48;101652.94;5050298;28;20269;-38
2022/10/29 00:43:51;;;;;;;4.22;2.58;;;;;;;19.96;61.39;101656.44;5047773;28;20032;-38
2022/10/29 00:46:29;;;;;;;3.63;2.60;;;;;;;19.94;61.64;101653.00;5048084;28;20097;-38
2022/10/29 00:48:57;;;;;;;4.72;2.88;;;;;;;19.92;61.55;101653.06;5051632;28;20036;-43
2022/10/29 00:51:24;;;;;;;8.90;2.90;;;;;;;19.93;61.48;101660.06;5044070;28;20032;-44
2022/10/29 00:53:55;;;;;;;5.10;3.30;;;;;;;19.93;61.38;101657.44;5046346;28;20037;-43
2022/10/29 00:56:24;;;;;;;4.25;2.50;;;;;;;19.95;61.44;101660.84;5049318;28;20751;-43
2022/10/29 00:58:50;;;;;;;4.20;2.63;;;;;;;19.93;61.53;101657.44;5051712;28;20041;-44
2022/10/29 01:01:15;;;;;;;5.95;2.28;;;;;;;19.96;61.24;101667.84;5051663;28;20919;-43
2022/10/29 01:03:42;;;;;;;3.90;2.80;;;;;;;19.95;61.37;101660.84;5046789;28;20032;-42
2022/10/29 01:06:07;;;;;;;4.15;2.70;;;;;;;19.93;61.38;101665.34;5053223;28;20126;-43
2022/10/29 01:08:33;;;;;;;4.20;2.83;;;;;;;19.94;61.27;101659.13;5047902;28;20036;-43
2022/10/29 01:11:17;;;;;;;4.07;2.80;;;;;;;19.92;61.37;101653.06;5047521;28;20413;-43
2022/10/29 01:14:13;;;;;;;6.37;2.77;;;;;;;19.94;61.19;101659.13;5047074;28;20040;-43
2022/10/29 01:16:41;;;;;;;3.95;2.35;;;;;;;19.94;61.47;101663.53;5044794;28;20063;-42
2022/10/29 01:19:17;;;;;;;4.85;3.05;;;;;;;19.92;61.38;101660.13;5054042;28;20040;-42
2022/10/29 01:22:00;;;;;;;4.80;3.03;;;;;;;19.93;61.28;101660.06;5046006;28;20068;-41
2022/10/29 01:24:47;;;;;;;4.78;2.80;;;;;;;19.94;61.43;101658.25;5053298;28;20127;-42
2022/10/29 01:27:32;;;;;;;3.45;2.53;;;;;;;19.93;61.32;101659.22;5048812;28;20501;-43
2022/10/29 01:30:03;;;;;;;5.00;2.85;;;;;;;19.92;61.37;101658.34;5049129;28;20127;-43
2022/10/29 01:32:37;;;;;;;3.70;2.70;;;;;;;19.92;61.25;101658.34;5051403;28;20509;-43
2022/10/29 01:35:08;;;;;;;;;;;;;;;19.92;61.34;101654.84;5052556;28;20032;-43
2022/10/29 01:37:47;;;;;;;4.05;2.47;;;;;;;19.92;61.23;101662.75;5049740;28;19920;-42
2022/10/29 01:40:33;;;;;;;4.40;2.80;;;;;;;19.90;61.39;101657.56;5046467;28;20040;-42
2022/10/29 01:43:12;;;;;;;6.55;2.75;;;;;;;19.91;61.32;101650.50;5045532;28;20098;-43
2022/10/29 01:45:41;;;;;;;4.35;2.63;;;;;;;19.92;61.22;101649.59;5048456;28;20083;-42
2022/10/29 01:48:11;;;;;;;4.03;2.72;;;;;;;19.94;61.29;101645.09;5051341;28;20265;-43
2022/10/29 01:50:38;;;;;;;3.88;2.60;;;;;;;19.92;61.15;101637.25;5068015;28;20103;-42
2022/10/29 01:53:05;;;;;;;6.88;2.97;;;;;;;19.94;61.06;101637.16;5053931;28;20039;-43
2022/10/29 01:55:35;;;;;;;6.05;2.85;;;;;;;19.92;61.25;101631.97;5047865;28;20678;-42
2022/10/29 01:58:02;;;;;;;3.40;2.40;;;;;;;19.93;61.25;101622.28;5046503;28;20045;-42
2022/10/29 02:00:37;;;;;;;4.15;2.60;;;;;;;19.91;61.42;101632.03;5046442;28;20045;-42
2022/10/29 02:03:28;;;;;;;7.13;3.50;;;;;;;19.91;61.28;101627.63;5051195;28;20151;-42
2022/10/29 02:06:11;;;;;;;3.75;2.60;;;;;;;19.92;61.29;101617.94;5047291;28;20048;-43
2022/10/29 02:09:10;;;;;;;4.45;2.83;;;;;;;19.92;61.27;101610.03;5055518;28;20024;-44
2022/10/29 02:11:45;;;;;;;5.35;3.17;;;;;;;19.90;61.33;101606.63;5049108;28;20025;-44
2022/10/29 02:14:29;;;;;;;;;;;;;;;19.90;61.27;101615.38;5048633;28;20024;-42
2022/10/29 02:16:55;;;;;;;6.47;3.15;;;;;;;19.90;61.41;101606.63;5050448;28;19921;-42
2022/10/29 02:19:21;;;;;;;4.80;2.42;;;;;;;19.91;61.35;101611.81;5053188;28;20037;-42
2022/10/29 02:21:49;;;;;;;3.00;2.58;;;;;;;19.91;61.27;101605.66;5047520;28;20036;-42
2022/10/29 02:24:14;;;;;;;5.18;2.67;;;;;;;19.90;61.26;101593.44;5050678;28;20046;-42
2022/10/29 02:26:39;;;;;;;4.60;2.50;;;;;;;19.91;61.23;101600.41;5047173;28;20036;-42
2022/10/29 02:29:05;;;;;;;6.28;3.05;;;;;;;19.90;61.28;101609.25;5055385;28;20668;-43
2022/10/29 02:31:30;;;;;;;6.53;3.42;;;;;;;19.90;61.22;101606.63;5048188;28;20047;-42
2022/10/29 02:33:55;;;;;;;6.45;2.75;;;;;;;19.91;61.20;101609.16;5049878;28;20041;-38
2022/10/29 02:36:21;;;;;;;3.75;2.78;;;;;;;19.91;61.42;101606.53;5047735;28;20048;-38
2022/10/29 02:38:46;;;;;;;6.78;2.80;;;;;;;19.91;61.00;101605.66;5046402;28;20041;-37
2022/10/29 02:41:11;;;;;;;4.93;3.00;;;;;;;19.91;61.20;101611.81;5046049;28;20041;-38
2022/10/29 02:43:37;;;;;;;4.75;3.03;;;;;;;19.92;61.06;101610.88;5043608;28;20028;-38
2022/10/29 02:46:18;;;;;;;4.43;2.95;;;;;;;19.90;60.90;101612.75;5044305;28;20045;-37
2022/10/29 02:48:43;;;;;;;5.10;2.88;;;;;;;19.89;61.26;101611.03;5041497;28;20044;-37
2022/10/29 02:51:09;;;;;;;4.18;2.97;;;;;;;19.90;61.11;101602.19;5051029;28;20041;-38
2022/10/29 02:53:35;;;;;;;5.47;2.60;;;;;;;19.92;61.16;101599.47;5050601;28;20032;-37
2022/10/29 02:56:00;;;;;;;7.80;2.90;;;;;;;19.89;61.01;101592.56;5051638;28;20043;-37
2022/10/29 02:58:26;;;;;;;3.78;2.42;;;;;;;19.89;61.13;101589.94;5045221;28;20072;-38
2022/10/29 03:00:51;;;;;;;4.07;2.90;;;;;;;19.89;61.12;101584.66;5045146;28;20567;-38
2022/10/29 03:03:17;;;;;;;5.95;3.22;;;;;;;19.89;61.04;101584.66;5045251;28;20029;-37
2022/10/29 03:05:43;;;;;;;6.78;2.80;;;;;;;19.88;61.09;101579.47;5050372;28;20029;-37
2022/10/29 03:08:08;;;;;;;4.78;2.75;;;;;;;19.89;61.24;101570.63;5048209;28;20107;-38
2022/10/29 03:10:34;;;;;;;5.20;3.05;;;;;;;19.90;61.08;101574.97;5046520;28;20579;-37
2022/10/29 03:12:59;;;;;;;4.65;2.88;;;;;;;19.88;61.04;101572.38;5042596;28;20106;-37
2022/10/29 03:15:25;;;;;;;5.22;2.42;;;;;;;19.90;61.37;101567.91;5052522;28;20067;-38
2022/10/29 03:17:50;;;;;;;4.65;2.78;;;;;;;19.90;60.97;101569.69;5045787;28;20068;-38
2022/10/29 03:20:15;;;;;;;5.13;2.67;;;;;;;19.89;61.10;101567.97;5050361;28;20037;-37
2022/10/29 03:22:41;;;;;;;3.47;2.55;;;;;;;19.88;61.19;101569.75;5046705;28;20103;-37
2022/10/29 03:25:07;;;;;;;4.15;2.70;;;;;;;19.90;61.09;101560.00;5046036;28;20500;-38
2022/10/29 03:27:32;;;;;;;5.20;2.70;;;;;;;19.89;61.06;101563.56;5045715;28;20028;-37
2022/10/29 03:29:57;;;;;;;4.43;2.80;;;;;;;19.88;60.98;101559.22;5044717;28;20045;-37
2022/10/29 03:32:23;;;;;;;4.13;2.63;;;;;;;19.88;61.16;101553.94;5047895;28;20299;-37
2022/10/29 03:34:48;;;;;;;4.47;2.70;;;;;;;19.89;61.15;101557.44;5052704;28;20024;-37
2022/10/29 03:37:13;;;;;;;5.38;2.75;;;;;;;19.87;61.07;101565.44;5044367;28;20055;-38
2022/10/29 03:39:39;;;;;;;5.93;3.42;;;;;;;19.88;61.16;101564.47;5050189;28;20701;-38
2022/10/29 03:42:04;;;;;;;4.15;2.95;;;;;;;19.88;60.99;101555.75;5047179;28;20615;-37
2022/10/29 03:44:30;;;;;;;3.85;2.92;;;;;;;19.88;61.11;101555.75;5049183;28;20036;-38
2022/10/29 03:46:55;;;;;;;3.20;2.10;;;;;;;19.87;61.02;101552.25;5050664;28;20028;-37
2022/10/29 03:49:20;;;;;;;3.92;2.92;;;;;;;19.86;60.72;101554.94;5042162;28;20068;-37
2022/10/29 03:51:46;;;;;;;3.85;2.80;;;;;;;19.88;60.91;101558.38;5050860;28;20086;-39
2022/10/29 03:54:11;;;;;;;6.93;3.53;;;;;;;19.87;60.82;101557.50;5047906;28;20036;-38
2022/10/29 03:56:36;;;;;;;5.30;2.65;;;;;;;19.88;60.89;101558.38;5050407;28;20031;-37
2022/10/29 03:59:02;;;;;;;3.97;2.53;;;;;;;19.86;60.99;101547.88;5046658;28;20468;-37
2022/10/29 04:01:27;;;;;;;4.03;2.75;;;;;;;19.85;61.04;101554.06;5046447;28;20052;-37
2022/10/29 04:03:53;;;;;;;4.50;2.67;;;;;;;19.87;60.97;101554.88;5040400;28;20106;-38
2022/10/29 04:06:18;;;;;;;3.28;2.47;;;;;;;19.87;60.97;101551.38;5045029;28;20040;-38
2022/10/29 04:08:43;;;;;;;5.47;2.92;;;;;;;19.84;61.04;101555.03;5044972;28;20048;-37
2022/10/29 04:11:11;;;;;;;4.40;3.17;;;;;;;19.86;60.98;101561.06;5043173;28;20479;-37
2022/10/29 04:13:36;;;;;;;4.93;2.88;;;;;;;19.87;60.99;101561.94;5049411;28;20056;-37
2022/10/29 04:16:02;;;;;;;3.83;2.58;;;;;;;19.87;60.94;101564.56;5042636;28;20409;-38
2022/10/29 04:18:27;;;;;;;3.70;2.28;;;;;;;19.87;60.93;101559.28;5043470;28;20079;-38
2022/10/29 04:20:53;;;;;;;4.35;2.85;;;;;;;19.86;61.03;101562.84;5040526;28;20052;-38
2022/10/29 04:23:18;;;;;;;5.72;2.75;;;;;;;19.85;61.05;101564.63;5045678;28;20827;-37
2022/10/29 04:25:54;;;;;;;3.50;2.63;;;;;;;19.86;60.78;101558.44;5046226;28;20595;-37
2022/10/29 04:28:20;;;;;;;5.18;3.28;;;;;;;19.86;60.86;101544.38;5043870;28;20413;-38
2022/10/29 04:30:45;;;;;;;5.80;2.85;;;;;;;19.86;61.05;101545.25;5042553;28;20055;-37
2022/10/29 04:33:10;;;;;;;4.60;3.10;;;;;;;19.85;61.20;101527.72;5047852;28;20118;-38
2022/10/29 04:35:35;;;;;;;6.13;2.72;;;;;;;19.84;60.98;101502.28;5044193;28;20646;-37
2022/10/29 04:38:07;;;;;;;3.20;2.60;;;;;;;19.85;61.00;101505.78;5054165;28;20086;-38
2022/10/29 04:40:32;;;;;;;4.75;2.88;;;;;;;19.87;60.80;101503.91;5043514;28;20405;-37
2022/10/29 04:42:58;;;;;;;5.05;2.90;;;;;;;19.85;60.99;101535.63;5051205;28;20094;-37
2022/10/29 04:45:23;;;;;;;5.13;2.70;;;;;;;19.85;61.04;101529.50;5044351;28;20059;-37
2022/10/29 04:47:58;;;;;;;7.03;3.35;;;;;;;19.84;60.93;101536.56;5041440;28;20037;-37
2022/10/29 04:50:23;;;;;;;5.78;2.90;;;;;;;19.84;60.90;101531.28;5049584;28;20033;-38
2022/10/29 04:52:48;;;;;;;4.03;2.72;;;;;;;19.84;61.06;101533.94;5049433;28;20835;-38
2022/10/29 04:55:14;;;;;;;5.15;2.92;;;;;;;19.85;60.83;101534.78;5042082;28;20048;-38
2022/10/29 04:57:39;;;;;;;6.05;2.83;;;;;;;19.85;60.97;101538.25;5045226;28;20115;-38
2022/10/29 05:00:05;;;;;;;3.90;2.72;;;;;;;19.84;60.88;101539.19;5042478;28;20061;-37
2022/10/29 05:02:30;;;;;;;3.42;2.80;;;;;;;19.83;60.95;101534.84;5050208;28;20033;-37
2022/10/29 05:04:56;;;;;;;3.67;2.17;;;;;;;19.84;60.89;101525.16;5047206;28;20044;-37
2022/10/29 05:07:21;;;;;;;4.68;2.90;;;;;;;19.83;61.01;101511.13;5046424;28;20047;-37
2022/10/29 05:09:46;;;;;;;4.28;2.72;;;;;;;19.83;60.65;101492.66;5047920;28;20116;-37
2022/10/29 05:12:12;;;;;;;5.22;3.00;;;;;;;19.81;61.07;101494.53;5045612;28;20040;-37
2022/10/29 05:14:37;;;;;;;4.75;3.17;;;;;;;19.82;61.24;101488.31;5043875;28;20037;-37
2022/10/29 05:17:02;;;;;;;3.67;2.55;;;;;;;19.83;60.89;101503.22;5047000;28;20143;-37
2022/10/29 05:19:28;;;;;;;4.10;2.72;;;;;;;19.82;60.98;101490.94;5048961;28;20074;-37
2022/10/29 05:21:53;;;;;;;5.43;2.95;;;;;;;19.83;61.02;101481.25;5045786;28;20118;-37
2022/10/29 05:24:18;;;;;;;4.18;2.60;;;;;;;19.83;60.77;101482.13;5048400;28;20041;-37
2022/10/29 05:26:44;;;;;;;3.05;2.50;;;;;;;19.83;60.80;101483.88;5043911;28;20047;-37
2022/10/29 05:29:09;;;;;;;4.22;2.70;;;;;;;19.83;60.86;101476.84;5045123;28;20617;-38
2022/10/29 05:31:34;;;;;;;3.72;2.42;;;;;;;19.83;60.92;101466.28;5049534;28;20045;-41
2022/10/29 05:34:00;;;;;;;4.35;3.10;;;;;;;19.84;60.77;101478.56;5050097;28;20147;-37
2022/10/29 05:36:25;;;;;;;3.22;2.50;;;;;;;19.84;60.77;101483.84;5050584;28;20067;-37
2022/10/29 05:38:50;;;;;;;3.88;2.78;;;;;;;19.84;61.24;101482.97;5042246;28;20119;-37
2022/10/29 05:41:16;;;;;;;3.58;2.70;;;;;;;19.84;60.71;101490.88;5040705;28;20850;-37
2022/10/29 05:43:41;;;;;;;3.95;2.72;;;;;;;19.85;60.93;101488.16;5053026;28;20120;-37
2022/10/29 05:46:06;;;;;;;5.07;2.80;;;;;;;19.84;60.77;101490.88;5048406;28;20131;-37
2022/10/29 05:48:32;;;;;;;6.00;2.95;;;;;;;19.85;60.72;101496.06;5048594;28;20033;-37
2022/10/29 05:50:57;;;;;;;4.25;3.00;;;;;;;19.86;60.91;101502.19;5046263;28;20044;-37
2022/10/29 05:53:23;;;;;;;5.10;2.80;;;;;;;19.85;60.86;101495.25;5047810;28;20552;-38
2022/10/29 05:55:49;;;;;;;4.55;2.83;;;;;;;19.85;60.67;101496.06;5050456;28;20029;-38
2022/10/29 05:58:14;;;;;;;5.32;2.88;;;;;;;19.85;61.01;101496.06;5052944;28;20127;-37
2022/10/29 06:00:42;;;;;;;4.93;2.60;;;;;;;19.85;60.76;101503.97;5045341;28;20069;-37
2022/10/29 06:03:13;;;;;;;4.35;2.83;;;;;;;19.85;60.60;101503.97;5049096;28;20048;-37
2022/10/29 06:05:38;;;;;;;4.30;2.97;;;;;;;19.86;60.90;101496.94;5050862;28;20603;-37
2022/10/29 06:08:04;;;;;;;4.53;2.63;;;;;;;19.86;60.64;101491.66;5050884;28;20032;-37
2022/10/29 06:10:29;;;;;;;6.10;3.08;;;;;;;19.86;60.75;101491.66;5049382;28;20043;-37
2022/10/29 06:12:55;;;;;;;5.22;2.85;;;;;;;19.85;60.77;101489.97;5052324;28;20059;-37
2022/10/29 06:15:20;;;;;;;6.63;3.67;;;;;;;19.84;60.75;101496.16;5049958;28;20078;-37
2022/10/29 06:17:46;;;;;;;5.35;3.13;;;;;;;19.85;60.83;101496.06;5048223;28;20037;-38
2022/10/29 06:20:13;;;;;;;5.85;2.97;;;;;;;19.85;60.77;101488.16;5045226;28;20037;-38
2022/10/29 06:22:38;;;;;;;7.57;3.50;;;;;;;19.84;60.68;101494.38;5049826;28;20064;-37
2022/10/29 06:25:04;;;;;;;5.43;2.80;;;;;;;19.85;60.77;101497.88;5051654;28;20047;-37
2022/10/29 06:27:30;;;;;;;3.70;3.00;;;;;;;19.85;60.80;101490.78;5054434;28;20039;-42
2022/10/29 06:29:55;;;;;;;4.57;2.70;;;;;;;19.87;60.50;101482.81;5048320;28;20045;-38
2022/10/29 06:32:20;;;;;;;4.28;3.10;;;;;;;19.86;60.78;101474.06;5052053;28;20028;-37
2022/10/29 06:34:46;;;;;;;4.47;2.72;;;;;;;19.84;60.60;101475.91;5052146;28;20119;-38
2022/10/29 06:37:12;;;;;;;5.97;3.10;;;;;;;19.82;60.52;101469.84;5050532;28;20061;-38
2022/10/29 06:39:37;;;;;;;5.30;2.50;;;;;;;19.83;60.88;101475.97;5049544;28;20033;-37
2022/10/29 06:42:03;;;;;;;6.57;3.28;;;;;;;19.82;60.59;101472.47;5049212;28;20060;-37
2022/10/29 06:44:28;;;;;;;7.60;3.28;;;;;;;19.82;60.77;101480.41;5046365;28;20037;-37
2022/10/29 06:46:54;;;;;;;5.57;2.70;;;;;;;19.86;60.48;101476.69;5047107;28;20044;-39
2022/10/29 06:49:19;;;;;;;6.30;3.00;;;;;;;19.83;60.64;101483.88;5049608;28;20729;-37
2022/10/29 06:51:45;;;;;;;7.00;3.30;;;;;;;19.84;60.72;101488.25;5048978;28;20730;-38
2022/10/29 06:54:11;;;;;;;9.07;3.38;;;;;;;19.82;60.95;101487.47;5050674;28;20817;-37
2022/10/29 06:56:36;;;;;;;9.48;3.47;;;;;;;19.81;60.92;101478.72;5045568;28;20043;-37
2022/10/29 06:59:02;;;;;;;6.25;3.03;;;;;;;19.81;60.96;101486.63;5049106;28;20032;-37
2022/10/29 07:01:29;;;;;;;8.73;3.20;;;;;;;19.78;61.00;101507.84;5045862;28;20040;-37
2022/10/29 07:03:54;;;;;;;5.22;3.13;;;;;;;19.78;61.05;101514.00;5046501;28;21008;-37
2022/10/29 07:06:20;;;;;;;10.63;3.83;;;;;;;19.79;60.91;101506.91;5049329;28;20046;-38
2022/10/29 07:08:45;;;;;;;8.38;3.15;;;;;;;19.78;60.98;101506.06;5047462;28;20033;-37
2022/10/29 07:11:10;;;;;;;5.55;3.03;;;;;;;19.79;61.10;101488.44;5050069;28;20115;-37
2022/10/29 07:13:36;;;;;;;4.57;2.88;;;;;;;19.78;60.80;101484.97;5050394;28;20041;-37
2022/10/29 07:16:01;;;;;;;9.05;3.50;;;;;;;19.76;60.94;101484.19;5046512;28;20775;-38
2022/10/29 07:18:27;;;;;;;6.20;3.40;;;;;;;19.79;60.89;101501.63;5052141;28;20437;-37
2022/10/29 07:20:52;;;;;;;5.70;3.67;;;;;;;19.82;60.90;101501.47;5051861;28;20040;-38
2022/10/29 07:23:17;;;;;;;7.28;2.90;;;;;;;19.84;60.63;101504.06;5049221;28;20064;-38
2022/10/29 07:25:43;;;;;;;7.25;3.20;;;;;;;19.83;60.81;101511.13;5045203;28;20445;-37
2022/10/29 07:28:16;;;;;;;11.23;4.03;;;;;;;19.84;61.01;101517.25;5043787;28;20037;-37
2022/10/29 07:30:43;;;;;;;7.80;2.97;;;;;;;19.83;61.00;101519.03;5044819;28;20345;-42
2022/10/29 07:33:09;;;;;;;8.98;3.05;;;;;;;19.85;61.12;101526.88;5040370;28;20041;-43
2022/10/29 07:35:35;;;;;;;6.88;2.42;;;;;;;19.85;60.60;101527.72;5052902;28;21009;-55
2022/10/29 07:38:05;;;;;;;10.45;3.05;;;;;;;19.91;60.96;101531.84;5050664;28;20520;-45
2022/10/29 07:40:30;;;;;;;7.47;3.00;;;;;;;19.88;61.21;101527.56;5042148;28;20120;-45
2022/10/29 07:42:56;;;;;;;7.45;2.67;;;;;;;19.88;61.63;101535.47;5044677;28;20045;-44
2022/10/29 07:45:21;;;;;;;6.43;3.08;;;;;;;19.91;61.55;101542.38;5044131;28;20111;-44
2022/10/29 07:47:47;;;;;;;11.55;3.08;;;;;;;19.87;61.47;101533.78;5048943;28;20102;-44
2022/10/29 07:50:13;;;;;;;7.38;3.08;;;;;;;19.93;61.33;101532.63;5043393;28;20059;-45
2022/10/29 07:52:39;;;;;;;8.98;2.97;;;;;;;19.90;61.31;101536.28;5043509;28;20037;-44
2022/10/29 07:55:05;;;;;;;9.57;3.00;;;;;;;19.90;61.58;101536.28;5044542;28;20040;-40
2022/10/29 07:57:31;;;;;;;6.63;2.55;;;;;;;19.90;61.42;101535.41;5042903;28;20040;-39
2022/10/29 07:59:56;;;;;;;5.35;2.70;;;;;;;19.89;61.18;101531.06;5045195;28;20037;-39
2022/10/29 08:02:21;;;;;;;8.93;3.33;;;;;;;19.88;61.30;101519.66;5042400;28;20032;-39
2022/10/29 08:04:47;;;;;;;7.35;3.05;;;;;;;19.89;61.33;101528.44;5047701;28;20037;-39
2022/10/29 08:07:12;;;;;;;3.83;2.72;;;;;;;19.88;61.28;101524.94;5046244;28;20132;-39
2022/10/29 08:09:37;;;;;;;7.35;3.13;;;;;;;19.89;61.16;101515.25;5046565;28;20142;-39
2022/10/29 08:12:07;;;;;;;8.80;2.78;;;;;;;19.88;61.24;101517.00;5047520;28;20123;-39
2022/10/29 08:14:32;;;;;;;6.93;3.28;;;;;;;19.88;61.25;101513.56;5047210;28;20553;-39
2022/10/29 08:16:57;;;;;;;10.13;3.13;;;;;;;19.86;61.17;101505.69;5045866;28;20032;-39
2022/10/29 08:19:23;;;;;;;7.72;2.72;;;;;;;19.86;61.18;101523.28;5045938;28;20510;-39
2022/10/29 08:21:48;;;;;;;6.10;2.80;;;;;;;19.87;61.18;101533.78;5049849;28;20167;-39
2022/10/29 08:24:15;;;;;;;7.50;3.30;;;;;;;19.88;61.15;101529.38;5050775;28;20608;-39
2022/10/29 08:26:40;;;;;;;5.38;2.65;;;;;;;19.87;60.96;101504.78;5045724;28;20032;-39
2022/10/29 08:29:05;;;;;;;7.68;3.00;;;;;;;19.87;61.11;101496.88;5049765;28;20138;-41
2022/10/29 08:31:31;;;;;;;9.23;2.90;;;;;;;19.87;61.10;101496.88;5053240;28;20036;-39
2022/10/29 08:33:56;;;;;;;6.03;2.65;;;;;;;19.87;61.11;101481.06;5047311;28;20068;-39
2022/10/29 08:36:22;;;;;;;8.50;2.85;;;;;;;19.87;60.99;101483.69;5046315;28;20033;-39
2022/10/29 08:38:47;;;;;;;9.40;2.70;;;;;;;19.87;60.90;101488.09;5048857;28;20047;-39
2022/10/29 08:41:30;;;;;;;9.57;3.63;;;;;;;19.88;60.92;101508.28;5044437;28;20052;-39
2022/10/29 08:44:01;;;;;;;6.15;3.05;;;;;;;19.88;61.06;101493.28;5058391;28;20074;-39
2022/10/29 08:46:55;;;;;;;8.57;3.20;;;;;;;19.88;61.09;101501.19;5050850;28;20131;-39
2022/10/29 08:49:30;;;;;;;10.27;3.78;;;;;;;19.88;61.02;101493.28;5047387;28;20036;-39
2022/10/29 08:52:02;;;;;;;5.57;3.17;;;;;;;19.88;60.95;101498.56;5047469;28;20043;-39
2022/10/29 08:54:31;;;;;;;5.88;2.95;;;;;;;19.88;60.99;101487.19;5047013;28;20814;-39
2022/10/29 08:57:01;;;;;;;5.25;2.90;;;;;;;19.87;60.96;101496.88;5042382;28;20067;-39
2022/10/29 08:59:32;;;;;;;5.57;2.88;;;;;;;19.87;60.93;101494.22;5040448;28;20067;-39
2022/10/29 09:01:57;;;;;;;5.50;2.90;;;;;;;19.87;60.75;101477.56;5046630;28;20111;-39
2022/10/29 09:04:32;;;;;;;6.13;3.00;;;;;;;19.88;60.82;101479.28;5047316;28;21232;-39
2022/10/29 09:07:25;;;;;;;7.05;3.05;;;;;;;19.88;60.92;101480.09;5046508;28;20072;-39
2022/10/29 09:10:38;;;;;;;6.68;2.95;;;;;;;19.86;60.82;101481.97;5046389;28;20523;-39
2022/10/29 09:13:06;;;;;;;5.90;2.50;;;;;;;19.85;60.94;101474.97;5046241;28;20155;-39
2022/10/29 09:15:53;;;;;;;6.75;3.03;;;;;;;19.87;60.98;101482.81;5051160;28;20045;-39
2022/10/29 09:18:41;;;;;;;3.95;2.50;;;;;;;19.88;60.88;101479.28;5042650;28;20062;-39
2022/10/29 09:21:35;;;;;;;3.88;2.40;;;;;;;19.88;60.75;101476.63;5047938;28;20060;-39
2022/10/29 09:24:09;;;;;;;7.97;3.00;;;;;;;19.90;60.76;101480.03;5048027;28;20041;-39
2022/10/29 09:26:56;;;;;;;5.03;2.67;;;;;;;19.88;60.92;101480.09;5049252;28;20048;-40
2022/10/29 09:29:27;;;;;;;5.50;2.63;;;;;;;19.87;60.67;101486.31;5048644;28;20032;-39
2022/10/29 09:32:01;;;;;;;4.75;2.65;;;;;;;19.88;61.04;101474.00;5048547;28;20752;-39
2022/10/29 09:34:45;;;;;;;6.35;3.22;;;;;;;19.88;61.02;101479.28;5051583;28;20032;-40
2022/10/29 09:37:16;;;;;;;7.30;2.75;;;;;;;19.88;60.89;101480.09;5053739;28;20040;-40
2022/10/29 09:39:45;;;;;;;4.22;2.60;;;;;;;19.89;60.68;101473.91;5047459;28;20257;-39
2022/10/29 09:42:25;;;;;;;4.72;2.53;;;;;;;19.88;60.89;101484.53;5046576;28;20052;-39
2022/10/29 09:45:01;;;;;;;4.80;2.90;;;;;;;19.88;60.74;101474.00;5048541;28;20029;-39
2022/10/29 09:47:41;;;;;;;3.58;2.80;;;;;;;19.88;60.75;101471.38;5049242;28;20052;-39
2022/10/29 09:50:21;;;;;;;5.32;2.50;;;;;;;19.89;61.02;101466.00;5056663;28;20032;-40
2022/10/29 09:52:48;;;;;;;5.72;2.40;;;;;;;19.90;60.71;101461.59;5050766;28;20063;-39
2022/10/29 09:55:25;;;;;;;4.78;2.83;;;;;;;19.88;60.98;101466.91;5052709;28;20047;-39
2022/10/29 09:57:51;;;;;;;4.82;3.00;;;;;;;19.89;60.74;101468.63;5049058;28;20528;-39
2022/10/29 10:00:26;;;;;;;3.75;2.47;;;;;;;19.90;60.63;101461.59;5048352;28;20074;-40
2022/10/29 10:03:01;;;;;;;4.78;2.50;;;;;;;19.93;60.70;101462.28;5048914;28;20045;-39
2022/10/29 10:05:29;;;;;;;4.50;2.35;;;;;;;19.92;60.60;101463.22;5053704;28;20032;-39
2022/10/29 10:08:11;;;;;;;3.65;2.28;;;;;;;19.93;60.70;101464.06;5047596;28;20029;-39
2022/10/29 10:11:00;;;;;;;4.50;2.47;;;;;;;19.94;60.92;101457.84;5047955;28;20041;-39
2022/10/29 10:13:29;;;;;;;4.28;2.28;;;;;;;19.92;60.81;101460.56;5038987;28;20780;-39
2022/10/29 10:15:59;;;;;;;7.30;2.75;;;;;;;19.94;60.80;101458.72;5045539;28;20041;-39
2022/10/29 10:18:26;;;;;;;4.13;2.65;;;;;;;19.94;60.71;101463.13;5046230;28;20509;-39
2022/10/29 10:21:00;;;;;;;5.03;2.85;;;;;;;19.93;60.78;101457.03;5043099;28;20152;-39
2022/10/29 10:23:47;;;;;;;4.35;2.33;;;;;;;19.93;60.74;101462.28;5047871;28;20123;-39
2022/10/29 10:26:41;;;;;;;5.15;1.92;;;;;;;19.95;60.64;101463.06;5051567;28;20043;-39
2022/10/29 10:29:23;;;;;;;7.47;2.55;;;;;;;19.94;60.66;101461.34;5049111;28;20052;-39
2022/10/29 10:32:07;;;;;;;7.07;2.90;;;;;;;19.96;60.71;101456.00;5055046;28;20043;-39
2022/10/29 10:34:33;;;;;;;5.28;2.50;;;;;;;19.97;60.65;101465.59;5046582;28;20132;-39
2022/10/29 10:37:04;;;;;;;4.43;2.58;;;;;;;19.96;60.62;101464.78;5046814;28;20033;-45
2022/10/29 10:39:29;;;;;;;9.48;2.55;;;;;;;19.96;60.72;101462.16;5047746;28;20041;-44
2022/10/29 10:41:58;;;;;;;6.30;2.70;;;;;;;19.97;60.81;101457.69;5049854;28;20417;-44
2022/10/29 10:44:25;;;;;;;5.00;2.72;;;;;;;19.96;60.63;101448.97;5051008;28;20515;-44
2022/10/29 10:46:53;;;;;;;5.95;2.40;;;;;;;19.96;60.62;101446.31;5051245;28;20033;-45
2022/10/29 10:49:29;;;;;;;4.93;2.63;;;;;;;19.93;61.06;101443.84;5055112;28;20128;-44
2022/10/29 10:51:56;;;;;;;3.85;2.65;;;;;;;19.95;60.77;101444.59;5044575;28;20032;-46
2022/10/29 10:54:29;;;;;;;4.40;2.45;;;;;;;19.95;60.64;101444.59;5052588;28;20098;-46
2022/10/29 10:57:00;;;;;;;5.85;2.88;;;;;;;19.94;60.70;101450.78;5047060;28;21039;-44
2022/10/29 10:59:36;;;;;;;5.65;2.35;;;;;;;19.93;60.62;101443.84;5051892;28;20055;-45
2022/10/29 11:02:03;;;;;;;6.72;2.72;;;;;;;19.94;60.65;101442.03;5050402;28;20052;-44
2022/10/29 11:04:37;;;;;;;6.15;2.97;;;;;;;19.93;60.77;101428.00;5052818;28;20061;-45
2022/10/29 11:07:06;;;;;;;3.80;2.38;;;;;;;19.94;60.77;101420.94;5056811;28;20882;-44
2022/10/29 11:09:37;;;;;;;7.60;2.80;;;;;;;19.93;60.79;101420.09;5067244;28;20068;-43
2022/10/29 11:12:15;;;;;;;4.10;2.53;;;;;;;19.93;60.59;101419.25;5050373;28;20102;-44
2022/10/29 11:14:56;;;;;;;3.22;2.20;;;;;;;19.96;60.54;101421.72;5050739;28;20579;-44
2022/10/29 11:17:30;;;;;;;4.15;2.80;;;;;;;19.96;60.56;101413.81;5045511;28;20028;-45
2022/10/29 11:20:01;;;;;;;5.05;2.45;;;;;;;19.94;60.76;101405.97;5048971;28;20074;-44
2022/10/29 11:22:37;;;;;;;6.00;2.53;;;;;;;19.96;60.48;101413.81;5047025;28;20059;-43
2022/10/29 11:25:12;;;;;;;5.28;2.42;;;;;;;19.94;60.45;101408.59;5047624;28;20157;-45
2022/10/29 11:27:50;;;;;;;3.75;2.42;;;;;;;19.96;60.64;101417.31;5049684;28;20447;-45
2022/10/29 11:30:18;;;;;;;5.57;2.22;;;;;;;19.94;60.31;101410.38;5047825;28;20922;-45
2022/10/29 11:33:01;;;;;;;7.85;2.72;;;;;;;19.93;60.65;101416.59;5046529;28;20440;-44
2022/10/29 11:35:43;;;;;;;5.22;2.38;;;;;;;19.95;60.62;101412.97;5049505;28;20029;-45
2022/10/29 11:38:24;;;;;;;5.80;2.58;;;;;;;19.92;60.71;101413.13;5043380;28;20546;-44